Time;durP1;ratioP1;P1;durP2;ratioP2;P2;SDS_P1;SDS_P2;PMS_P1;PMS_P2;Temp;Humidity;BMP_temperature;BMP_pressure;BME280_temperature;BME280_humidity;BME280_pressure;Samples;Min_cycle;Max_cycle;Signal;HPM_P1;HPM_P2
2021/03/03 00:04:28;;;;;;;20.52;13.85;;;;;;;;;;10293429;28;20469;-61
2021/03/03 00:09:25;;;;;;;20.33;13.60;;;;;;;;;;10294973;28;20076;-61
2021/03/03 00:14:23;;;;;;;18.05;13.38;;;;;;;;;;10292781;28;20072;-62
2021/03/03 00:19:20;;;;;;;25.33;14.52;;;;;;;;;;10294138;28;20064;-61
2021/03/03 00:24:18;;;;;;;19.35;13.95;;;;;;;;;;10294031;28;20088;-62
2021/03/03 00:29:15;;;;;;;17.83;13.73;;;;;;;;;;10293246;28;20064;-61
2021/03/03 00:34:13;;;;;;;19.88;14.75;;;;;;;;;;10294037;28;20075;-62
2021/03/03 00:39:11;;;;;;;22.48;14.73;;;;;;;;;;10292338;28;20080;-62
2021/03/03 00:44:08;;;;;;;16.60;13.65;;;;;;;;;;10293956;28;20065;-62
2021/03/03 00:49:05;;;;;;;18.60;13.65;;;;;;;;;;10292156;28;20515;-60
2021/03/03 00:54:04;;;;;;;15.88;13.43;;;;;;;;;;10293881;28;20074;-60
2021/03/03 00:59:01;;;;;;;20.48;13.77;;;;;;;;;;10292325;28;20491;-62
2021/03/03 01:04:01;;;;;;;18.00;12.95;;;;;;;;;;10293840;28;20068;-62
2021/03/03 01:09:07;;;;;;;20.38;14.20;;;;;;;;;;10292130;28;20072;-62
2021/03/03 01:14:08;;;;;;;27.15;14.90;;;;;;;;;;10291422;28;20088;-62
2021/03/03 01:19:07;;;;;;;16.63;11.70;;;;;;;;;;10291414;28;20483;-64
2021/03/03 01:24:04;;;;;;;17.65;12.77;;;;;;;;;;10293872;28;20089;-62
2021/03/03 01:29:03;;;;;;;20.75;14.00;;;;;;;;;;10276711;28;20483;-62
2021/03/03 01:34:00;;;;;;;17.20;13.20;;;;;;;;;;10280521;28;20072;-63
2021/03/03 01:38:57;;;;;;;18.52;13.55;;;;;;;;;;10279524;28;20084;-61
2021/03/03 01:43:55;;;;;;;16.60;13.32;;;;;;;;;;10281468;28;20446;-61
2021/03/03 01:48:53;;;;;;;19.30;13.48;;;;;;;;;;10298719;28;20061;-62
2021/03/03 01:53:52;;;;;;;17.73;13.23;;;;;;;;;;10300709;28;20455;-63
2021/03/03 01:58:50;;;;;;;19.95;14.38;;;;;;;;;;10298724;28;20495;-61
2021/03/03 02:03:49;;;;;;;21.58;16.55;;;;;;;;;;10300612;28;20076;-62
2021/03/03 02:08:52;;;;;;;25.05;14.23;;;;;;;;;;10279350;28;20084;-61
2021/03/03 02:13:51;;;;;;;21.35;17.90;;;;;;;;;;10295299;28;20083;-63
2021/03/03 02:18:49;;;;;;;21.08;14.68;;;;;;;;;;10298174;28;20075;-62
2021/03/03 02:23:51;;;;;;;24.02;16.52;;;;;;;;;;10297400;28;20080;-62
2021/03/03 02:28:50;;;;;;;19.10;14.88;;;;;;;;;;10298132;28;20075;-62
2021/03/03 02:34:06;;;;;;;20.70;17.60;;;;;;;;;;10297009;28;20083;-63
2021/03/03 02:39:04;;;;;;;17.05;14.18;;;;;;;;;;10297423;28;20065;-63
2021/03/03 02:44:03;;;;;;;16.48;12.82;;;;;;;;;;10296918;28;20531;-62
2021/03/03 02:49:01;;;;;;;19.75;14.05;;;;;;;;;;10296915;28;20071;-62
2021/03/03 02:53:59;;;;;;;16.83;12.63;;;;;;;;;;10296989;28;20075;-63
2021/03/03 02:58:58;;;;;;;19.02;12.88;;;;;;;;;;10296713;28;20072;-63
2021/03/03 03:03:58;;;;;;;19.27;13.55;;;;;;;;;;10296712;28;20478;-63
2021/03/03 03:08:58;;;;;;;21.52;14.48;;;;;;;;;;10295997;28;20080;-62
2021/03/03 03:14:00;;;;;;;24.15;15.07;;;;;;;;;;10296730;28;20069;-63
2021/03/03 03:18:59;;;;;;;18.63;13.35;;;;;;;;;;10275413;28;20076;-63
2021/03/03 03:24:00;;;;;;;19.73;13.35;;;;;;;;;;10275961;28;20073;-63
2021/03/03 03:28:58;;;;;;;15.38;11.75;;;;;;;;;;10294475;28;20072;-63
2021/03/03 03:33:57;;;;;;;15.73;12.30;;;;;;;;;;10294269;28;20076;-62
2021/03/03 03:38:55;;;;;;;18.75;13.18;;;;;;;;;;10294863;28;20071;-62
2021/03/03 03:43:53;;;;;;;17.85;11.40;;;;;;;;;;10296241;28;20068;-62
2021/03/03 03:48:51;;;;;;;16.75;12.93;;;;;;;;;;10294523;28;20082;-63
2021/03/03 03:53:48;;;;;;;20.08;12.98;;;;;;;;;;10296292;28;20103;-62
2021/03/03 03:58:46;;;;;;;18.52;12.50;;;;;;;;;;10296314;28;20060;-63
2021/03/03 04:03:44;;;;;;;17.70;13.88;;;;;;;;;;10294601;28;20469;-62
2021/03/03 04:08:41;;;;;;;18.88;12.73;;;;;;;;;;10294828;28;20452;-63
2021/03/03 04:13:39;;;;;;;17.42;12.40;;;;;;;;;;10294882;28;20080;-63
2021/03/03 04:18:37;;;;;;;17.75;11.88;;;;;;;;;;10294094;28;20064;-63
2021/03/03 04:23:34;;;;;;;19.20;14.27;;;;;;;;;;10294910;28;20087;-63
2021/03/03 04:28:31;;;;;;;22.25;14.95;;;;;;;;;;10293557;28;20510;-63
2021/03/03 04:33:29;;;;;;;19.65;12.60;;;;;;;;;;10294275;28;20087;-63
2021/03/03 04:38:27;;;;;;;22.05;12.52;;;;;;;;;;10292803;28;20064;-63
2021/03/03 04:43:24;;;;;;;17.17;12.80;;;;;;;;;;10294450;28;20129;-63
2021/03/03 04:48:22;;;;;;;17.75;12.93;;;;;;;;;;10294240;28;20068;-62
2021/03/03 04:53:21;;;;;;;17.25;11.70;;;;;;;;;;10293083;28;20083;-62
2021/03/03 04:58:19;;;;;;;15.23;11.43;;;;;;;;;;10295131;28;20581;-63
2021/03/03 05:03:16;;;;;;;17.05;12.25;;;;;;;;;;10296890;28;20071;-63
2021/03/03 05:08:15;;;;;;;15.00;12.15;;;;;;;;;;10300633;28;20071;-61
2021/03/03 05:13:14;;;;;;;15.50;12.43;;;;;;;;;;10302149;28;20079;-63
2021/03/03 05:18:12;;;;;;;16.85;12.30;;;;;;;;;;10300740;28;20532;-63
2021/03/03 05:23:10;;;;;;;20.60;13.63;;;;;;;;;;10301338;28;20092;-60
2021/03/03 05:28:07;;;;;;;17.70;12.50;;;;;;;;;;10301080;28;20474;-62
2021/03/03 05:33:05;;;;;;;18.83;11.80;;;;;;;;;;10300066;28;20073;-63
2021/03/03 05:38:03;;;;;;;23.77;13.45;;;;;;;;;;10300454;28;20090;-63
2021/03/03 05:43:01;;;;;;;21.40;13.13;;;;;;;;;;10299079;28;20071;-58
2021/03/03 05:47:59;;;;;;;16.10;13.43;;;;;;;;;;10299409;28;20061;-60
2021/03/03 05:52:57;;;;;;;20.48;13.15;;;;;;;;;;10296601;28;20072;-60
2021/03/03 05:57:56;;;;;;;18.13;12.75;;;;;;;;;;10297455;28;20075;-60
2021/03/03 06:02:53;;;;;;;20.02;14.30;;;;;;;;;;10299433;28;20071;-61
2021/03/03 06:07:51;;;;;;;18.50;14.95;;;;;;;;;;10299155;28;20067;-62
2021/03/03 06:12:48;;;;;;;19.20;14.57;;;;;;;;;;10298986;28;20087;-61
2021/03/03 06:17:47;;;;;;;19.08;14.32;;;;;;;;;;10298083;28;21172;-61
2021/03/03 06:22:44;;;;;;;37.55;24.88;;;;;;;;;;10278857;28;20084;-61
2021/03/03 06:27:41;;;;;;;24.63;18.20;;;;;;;;;;10278608;28;20072;-61
2021/03/03 06:32:56;;;;;;;24.73;19.38;;;;;;;;;;10276196;28;20519;-61
2021/03/03 06:37:55;;;;;;;25.52;19.13;;;;;;;;;;10297109;28;20060;-61
2021/03/03 06:42:52;;;;;;;26.83;20.17;;;;;;;;;;10298569;28;20072;-61
2021/03/03 06:47:50;;;;;;;17.35;13.32;;;;;;;;;;10296977;28;20068;-61
2021/03/03 06:52:52;;;;;;;18.48;15.90;;;;;;;;;;10298744;28;20076;-60
2021/03/03 06:57:49;;;;;;;18.52;13.68;;;;;;;;;;10296505;28;20064;-61
2021/03/03 07:02:46;;;;;;;15.93;11.50;;;;;;;;;;10296233;28;20064;-61
2021/03/03 07:07:59;;;;;;;17.52;13.45;;;;;;;;;;10296854;28;20529;-61
2021/03/03 07:12:58;;;;;;;17.80;12.30;;;;;;;;;;10296861;28;20073;-61
2021/03/03 07:17:55;;;;;;;18.00;13.15;;;;;;;;;;10297251;28;20075;-61
2021/03/03 07:22:56;;;;;;;20.58;15.68;;;;;;;;;;10295218;28;20878;-61
2021/03/03 07:27:54;;;;;;;20.27;14.40;;;;;;;;;;10276318;28;20084;-61
2021/03/03 07:32:52;;;;;;;17.17;13.55;;;;;;;;;;10275026;28;20075;-61
2021/03/03 07:38:06;;;;;;;20.08;14.30;;;;;;;;;;10296299;28;20061;-60
2021/03/03 07:43:04;;;;;;;24.27;15.98;;;;;;;;;;10295566;28;20071;-61
2021/03/03 07:48:04;;;;;;;25.65;17.30;;;;;;;;;;10297083;28;20072;-61
2021/03/03 07:53:02;;;;;;;18.60;13.75;;;;;;;;;;10293512;28;20329;-61
2021/03/03 07:58:00;;;;;;;18.63;12.32;;;;;;;;;;10275518;28;20069;-61
2021/03/03 08:02:57;;;;;;;20.15;13.35;;;;;;;;;;10274669;28;20064;-60
2021/03/03 08:08:13;;;;;;;23.50;16.10;;;;;;;;;;10273781;28;20057;-61
2021/03/03 08:13:12;;;;;;;23.27;16.63;;;;;;;;;;10293751;28;20068;-61
2021/03/03 08:18:23;;;;;;;23.20;14.77;;;;;;;;;;10294774;28;20079;-61
2021/03/03 08:23:39;;;;;;;28.70;21.58;;;;;;;;;;10293212;28;20090;-61
2021/03/03 08:28:38;;;;;;;28.10;16.98;;;;;;;;;;10295332;28;20080;-62
2021/03/03 08:33:36;;;;;;;27.00;16.83;;;;;;;;;;10294574;28;20091;-63
2021/03/03 08:38:43;;;;;;;31.85;19.92;;;;;;;;;;10291715;28;20470;-64
2021/03/03 08:43:50;;;;;;;34.00;23.90;;;;;;;;;;10295146;28;20072;-62
2021/03/03 08:49:07;;;;;;;25.73;15.93;;;;;;;;;;10293450;28;20095;-63
2021/03/03 08:54:05;;;;;;;21.25;14.38;;;;;;;;;;10292790;28;20079;-62
2021/03/03 08:59:06;;;;;;;20.10;13.82;;;;;;;;;;10293583;28;20064;-61
2021/03/03 09:04:04;;;;;;;21.88;15.38;;;;;;;;;;10291932;28;20076;-61
2021/03/03 09:09:05;;;;;;;26.17;17.88;;;;;;;;;;10293633;28;20068;-61
2021/03/03 09:14:02;;;;;;;21.67;13.98;;;;;;;;;;10291988;28;20079;-62
2021/03/03 09:19:05;;;;;;;21.80;15.23;;;;;;;;;;10293306;28;20072;-62
2021/03/03 09:24:09;;;;;;;23.90;13.48;;;;;;;;;;10292702;28;20607;-63
2021/03/03 09:29:07;;;;;;;36.13;25.20;;;;;;;;;;10290581;28;20072;-62
2021/03/03 09:34:05;;;;;;;35.60;24.23;;;;;;;;;;10293209;28;20069;-62
2021/03/03 09:39:08;;;;;;;35.03;24.50;;;;;;;;;;10291263;28;20464;-61
2021/03/03 09:44:06;;;;;;;26.08;18.60;;;;;;;;;;10291110;28;20072;-61
2021/03/03 09:49:19;;;;;;;18.42;13.80;;;;;;;;;;10295068;28;20072;-62
2021/03/03 09:54:34;;;;;;;28.50;21.48;;;;;;;;;;10278775;28;20065;-62
2021/03/03 09:59:33;;;;;;;20.63;15.45;;;;;;;;;;10295208;28;20076;-62
2021/03/03 10:04:31;;;;;;;35.70;25.13;;;;;;;;;;10278639;28;20073;-62
2021/03/03 10:09:36;;;;;;;17.55;12.60;;;;;;;;;;10278349;28;20057;-62
2021/03/03 10:14:34;;;;;;;17.17;12.40;;;;;;;;;;10277938;28;20489;-62
2021/03/03 10:19:41;;;;;;;17.55;11.02;;;;;;;;;;10277906;28;20064;-62
2021/03/03 10:24:38;;;;;;;20.42;14.05;;;;;;;;;;10297990;28;20545;-62
2021/03/03 10:29:39;;;;;;;21.58;13.73;;;;;;;;;;10298751;28;20079;-62
2021/03/03 10:34:36;;;;;;;21.80;12.27;;;;;;;;;;10296540;28;20474;-62
2021/03/03 10:39:34;;;;;;;17.48;12.15;;;;;;;;;;10298612;28;20064;-62
2021/03/03 10:44:40;;;;;;;20.05;13.07;;;;;;;;;;10296704;28;20060;-62
2021/03/03 10:49:39;;;;;;;16.88;12.80;;;;;;;;;;10296139;28;20743;-63
2021/03/03 10:54:37;;;;;;;16.60;11.40;;;;;;;;;;10296007;28;20071;-62
2021/03/03 10:59:36;;;;;;;17.90;13.32;;;;;;;;;;10295520;28;20087;-63
2021/03/03 11:04:38;;;;;;;27.35;16.80;;;;;;;;;;10295693;28;20520;-63
2021/03/03 11:09:35;;;;;;;16.02;11.52;;;;;;;;;;10295789;28;20075;-63
2021/03/03 11:14:33;;;;;;;17.42;12.55;;;;;;;;;;10296807;28;20490;-62
2021/03/03 11:19:31;;;;;;;20.27;14.38;;;;;;;;;;10294180;28;20498;-63
2021/03/03 11:24:32;;;;;;;19.95;13.10;;;;;;;;;;10296609;28;20073;-63
2021/03/03 11:29:30;;;;;;;21.85;14.52;;;;;;;;;;10296241;28;20487;-63
2021/03/03 11:34:43;;;;;;;17.55;11.45;;;;;;;;;;10294610;28;20091;-63
2021/03/03 11:39:41;;;;;;;14.40;10.68;;;;;;;;;;10296360;28;20064;-63
2021/03/03 11:44:39;;;;;;;15.48;11.63;;;;;;;;;;10294216;28;20040;-63
2021/03/03 11:49:36;;;;;;;28.45;18.15;;;;;;;;;;10295457;28;20068;-63
2021/03/03 11:54:33;;;;;;;17.88;13.73;;;;;;;;;;10294555;28;20083;-63
2021/03/03 11:59:32;;;;;;;21.33;14.20;;;;;;;;;;10294193;28;20060;-64
2021/03/03 12:04:34;;;;;;;22.65;14.57;;;;;;;;;;10295047;28;20505;-63
2021/03/03 12:09:31;;;;;;;47.03;31.23;;;;;;;;;;10295186;28;20084;-63
2021/03/03 12:14:29;;;;;;;30.10;19.10;;;;;;;;;;10294434;28;20072;-63
2021/03/03 12:19:27;;;;;;;55.75;36.67;;;;;;;;;;10293548;28;20482;-62
2021/03/03 12:24:26;;;;;;;21.90;15.75;;;;;;;;;;10273851;28;20092;-61
2021/03/03 12:29:23;;;;;;;20.83;13.40;;;;;;;;;;10273257;28;20071;-61
2021/03/03 12:34:20;;;;;;;15.70;11.90;;;;;;;;;;10274112;28;20076;-61
2021/03/03 12:39:19;;;;;;;15.77;11.98;;;;;;;;;;10273778;28;20080;-62
2021/03/03 12:44:16;;;;;;;19.40;12.90;;;;;;;;;;10273358;28;20072;-62
2021/03/03 12:49:13;;;;;;;42.47;30.92;;;;;;;;;;10272854;28;20510;-62
2021/03/03 12:54:11;;;;;;;22.60;15.18;;;;;;;;;;10272577;28;20064;-62
2021/03/03 12:59:09;;;;;;;22.60;13.65;;;;;;;;;;10291960;28;20070;-61
2021/03/03 13:04:07;;;;;;;25.30;16.95;;;;;;;;;;10293593;28;20117;-62
2021/03/03 13:09:05;;;;;;;20.30;13.98;;;;;;;;;;10291435;28;20070;-63
2021/03/03 13:14:02;;;;;;;19.40;12.27;;;;;;;;;;10292600;28;20513;-63
2021/03/03 13:19:00;;;;;;;11.80;9.32;;;;;;;;;;10292884;28;20068;-63
2021/03/03 13:24:02;;;;;;;10.57;8.30;;;;;;;;;;10295591;28;20073;-63
2021/03/03 13:29:00;;;;;;;17.52;13.18;;;;;;;;;;10300461;28;20056;-62
2021/03/03 13:33:57;;;;;;;30.30;21.83;;;;;;;;;;10298856;28;20080;-63
2021/03/03 13:38:56;;;;;;;37.38;24.98;;;;;;;;;;10300916;28;20056;-63
2021/03/03 13:43:55;;;;;;;42.92;22.00;;;;;;;;;;10280551;28;20068;-63
2021/03/03 13:48:52;;;;;;;28.80;16.85;;;;;;;;;;10280281;28;20057;-62
2021/03/03 13:53:49;;;;;;;51.67;25.05;;;;;;;;;;10278680;28;20083;-63
2021/03/03 13:58:48;;;;;;;14.98;9.88;;;;;;;;;;10279799;28;20064;-63
2021/03/03 14:03:45;;;;;;;199.10;97.07;;;;;;;;;;10279441;28;20037;-63
2021/03/03 14:08:42;;;;;;;21.40;13.82;;;;;;;;;;10278421;28;20045;-63
2021/03/03 14:13:43;;;;;;;16.08;11.30;;;;;;;;;;10282359;28;20493;-64
2021/03/03 14:18:41;;;;;;;12.07;8.65;;;;;;;;;;10300315;28;20068;-64
2021/03/03 14:23:39;;;;;;;14.27;9.75;;;;;;;;;;10279172;28;20076;-64
2021/03/03 14:28:36;;;;;;;27.70;20.80;;;;;;;;;;10291946;28;20164;-62
2021/03/03 14:33:34;;;;;;;18.88;8.95;;;;;;;;;;10275188;28;20061;-63
2021/03/03 14:38:33;;;;;;;12.05;10.85;;;;;;;;;;10292670;28;20076;-63
2021/03/03 14:43:31;;;;;;;14.98;9.95;;;;;;;;;;10289581;28;20071;-63
2021/03/03 14:48:28;;;;;;;11.13;8.00;;;;;;;;;;10297672;28;20588;-62
2021/03/03 14:53:25;;;;;;;21.00;12.57;;;;;;;;;;10296888;28;20757;-63
2021/03/03 14:58:23;;;;;;;128.07;71.82;;;;;;;;;;10296131;28;20100;-61
2021/03/03 15:03:21;;;;;;;171.70;99.50;;;;;;;;;;10294219;28;20091;-63
2021/03/03 15:08:19;;;;;;;99.53;54.45;;;;;;;;;;10297067;28;20081;-61
2021/03/03 15:13:15;;;;;;;92.50;56.15;;;;;;;;;;10296572;28;20068;-62
2021/03/03 15:18:14;;;;;;;126.53;80.38;;;;;;;;;;10294655;28;20088;-62
2021/03/03 15:23:11;;;;;;;27.23;18.95;;;;;;;;;;10295155;28;20084;-63
2021/03/03 15:28:08;;;;;;;15.93;10.27;;;;;;;;;;10297261;28;20483;-63
2021/03/03 15:33:06;;;;;;;20.67;16.17;;;;;;;;;;10295435;28;20063;-63
2021/03/03 15:38:04;;;;;;;13.45;11.05;;;;;;;;;;10296692;28;20056;-64
2021/03/03 15:43:02;;;;;;;20.75;11.20;;;;;;;;;;10295396;28;20451;-64
2021/03/03 15:47:59;;;;;;;60.78;41.55;;;;;;;;;;10295905;28;20068;-63
2021/03/03 15:52:57;;;;;;;38.42;27.60;;;;;;;;;;10295984;28;20071;-63
2021/03/03 15:57:55;;;;;;;33.58;24.73;;;;;;;;;;10294298;28;20060;-63
2021/03/03 16:02:53;;;;;;;36.45;21.90;;;;;;;;;;10295856;28;20065;-63
2021/03/03 16:07:52;;;;;;;117.72;84.95;;;;;;;;;;10294231;28;20067;-63
2021/03/03 16:12:57;;;;;;;63.97;40.42;;;;;;;;;;10293784;28;20064;-63
2021/03/03 16:17:54;;;;;;;76.78;46.13;;;;;;;;;;10274523;28;20469;-63
2021/03/03 16:22:51;;;;;;;90.10;53.30;;;;;;;;;;10273786;28;20064;-63
2021/03/03 16:27:49;;;;;;;81.40;39.47;;;;;;;;;;10285038;28;20148;-62
2021/03/03 16:32:48;;;;;;;64.15;40.33;;;;;;;;;;10294510;28;20065;-62
2021/03/03 16:37:45;;;;;;;72.28;41.83;;;;;;;;;;10294223;28;20073;-63
2021/03/03 16:42:43;;;;;;;80.88;45.80;;;;;;;;;;10293508;28;20076;-64
2021/03/03 16:47:41;;;;;;;106.18;58.47;;;;;;;;;;10294820;28;20068;-65
2021/03/03 16:52:39;;;;;;;106.00;71.60;;;;;;;;;;10293338;28;20076;-64
2021/03/03 16:57:39;;;;;;;79.43;52.63;;;;;;;;;;10274425;28;20079;-64
2021/03/03 17:02:37;;;;;;;101.13;59.90;;;;;;;;;;10282049;28;20514;-64
2021/03/03 17:07:35;;;;;;;66.35;40.95;;;;;;;;;;10281383;28;20560;-64
2021/03/03 17:12:33;;;;;;;35.47;25.73;;;;;;;;;;10281080;28;20068;-64
2021/03/03 17:17:31;;;;;;;31.15;16.92;;;;;;;;;;10295226;28;20544;-64
2021/03/03 17:22:31;;;;;;;68.45;47.50;;;;;;;;;;10300689;28;20538;-65
2021/03/03 17:27:28;;;;;;;337.20;148.55;;;;;;;;;;10301353;28;20072;-65
2021/03/03 17:32:27;;;;;;;89.93;44.22;;;;;;;;;;10299917;28;20068;-65
2021/03/03 17:37:24;;;;;;;73.75;44.20;;;;;;;;;;10301797;28;20510;-64
2021/03/03 17:42:22;;;;;;;54.40;34.83;;;;;;;;;;10299236;28;20076;-65
2021/03/03 17:47:25;;;;;;;89.68;53.25;;;;;;;;;;10299629;28;20076;-65
2021/03/03 17:52:23;;;;;;;47.03;27.33;;;;;;;;;;10301299;28;20073;-65
2021/03/03 17:57:21;;;;;;;132.38;76.38;;;;;;;;;;10298021;28;20076;-65
2021/03/03 18:02:18;;;;;;;140.38;84.35;;;;;;;;;;10300055;28;20316;-64
2021/03/03 18:07:16;;;;;;;34.95;27.35;;;;;;;;;;10299658;28;20064;-65
2021/03/03 18:12:14;;;;;;;27.77;22.30;;;;;;;;;;10296661;28;20060;-65
2021/03/03 18:17:11;;;;;;;24.67;18.42;;;;;;;;;;10299846;28;20088;-64
2021/03/03 18:22:09;;;;;;;22.55;16.02;;;;;;;;;;10297712;28;20080;-64
2021/03/03 18:27:07;;;;;;;28.50;20.50;;;;;;;;;;10299645;28;20072;-64
2021/03/03 18:32:05;;;;;;;28.20;21.00;;;;;;;;;;10296960;28;20060;-64
2021/03/03 18:37:03;;;;;;;24.42;17.52;;;;;;;;;;10298788;28;20494;-64
2021/03/03 18:42:02;;;;;;;27.60;17.88;;;;;;;;;;10298320;28;20079;-64
2021/03/03 18:46:59;;;;;;;24.70;16.67;;;;;;;;;;10297234;28;20073;-64
2021/03/03 18:51:58;;;;;;;23.85;16.80;;;;;;;;;;10298363;28;20509;-63
2021/03/03 18:56:55;;;;;;;29.55;18.98;;;;;;;;;;10296379;28;20068;-63
2021/03/03 19:01:52;;;;;;;35.33;21.67;;;;;;;;;;10277596;28;20513;-64
2021/03/03 19:06:50;;;;;;;36.15;23.48;;;;;;;;;;10276438;28;20068;-64
2021/03/03 19:11:48;;;;;;;31.17;19.90;;;;;;;;;;10276332;28;20061;-65
2021/03/03 19:16:45;;;;;;;102.55;68.15;;;;;;;;;;10276079;28;20064;-64
2021/03/03 19:21:43;;;;;;;30.42;20.38;;;;;;;;;;10281823;28;20502;-65
2021/03/03 19:26:40;;;;;;;37.38;25.23;;;;;;;;;;10292166;28;20060;-65
2021/03/03 19:31:38;;;;;;;123.78;59.78;;;;;;;;;;10293848;28;20099;-64
2021/03/03 19:36:38;;;;;;;104.05;52.13;;;;;;;;;;10290372;28;20089;-63
2021/03/03 19:41:35;;;;;;;31.08;21.20;;;;;;;;;;10295033;28;20064;-64
2021/03/03 19:46:42;;;;;;;25.88;16.95;;;;;;;;;;10293325;28;20071;-64
2021/03/03 19:51:39;;;;;;;41.92;25.50;;;;;;;;;;10274707;28;20076;-64
2021/03/03 19:56:37;;;;;;;44.85;26.50;;;;;;;;;;10284923;28;20056;-63
2021/03/03 20:01:34;;;;;;;46.28;30.30;;;;;;;;;;10295427;28;20135;-63
2021/03/03 20:06:33;;;;;;;39.15;24.40;;;;;;;;;;10340059;28;20052;-63
2021/03/03 20:11:30;;;;;;;40.65;29.48;;;;;;;;;;10329083;28;20065;-63
2021/03/03 20:16:27;;;;;;;34.78;22.60;;;;;;;;;;10297759;28;20071;-63
2021/03/03 20:21:25;;;;;;;31.60;21.13;;;;;;;;;;10289104;28;20088;-63
2021/03/03 20:26:24;;;;;;;27.27;19.70;;;;;;;;;;10303588;28;20055;-64
2021/03/03 20:31:22;;;;;;;29.98;18.88;;;;;;;;;;10316555;28;20044;-64
2021/03/03 20:36:20;;;;;;;24.27;16.08;;;;;;;;;;10311014;28;20077;-62
2021/03/03 20:41:17;;;;;;;20.98;15.30;;;;;;;;;;10289427;28;20079;-64
2021/03/03 20:46:15;;;;;;;20.92;15.43;;;;;;;;;;10290279;28;20056;-62
2021/03/03 20:51:13;;;;;;;20.45;13.68;;;;;;;;;;10288488;28;20508;-63
2021/03/03 20:56:10;;;;;;;17.75;13.25;;;;;;;;;;10275836;28;20087;-63
2021/03/03 21:01:07;;;;;;;21.40;13.77;;;;;;;;;;10275133;28;20041;-63
2021/03/03 21:06:07;;;;;;;19.55;13.23;;;;;;;;;;10293770;28;20445;-62
2021/03/03 21:11:04;;;;;;;17.58;12.55;;;;;;;;;;10298876;28;20427;-61
2021/03/03 21:16:01;;;;;;;16.30;11.43;;;;;;;;;;10291739;28;20084;-62
2021/03/03 21:20:59;;;;;;;19.20;11.93;;;;;;;;;;10275756;28;20057;-62
2021/03/03 21:25:57;;;;;;;16.90;12.65;;;;;;;;;;10314337;28;20500;-62
2021/03/03 21:30:54;;;;;;;17.42;12.38;;;;;;;;;;10315409;28;20048;-63
2021/03/03 21:35:52;;;;;;;16.25;12.55;;;;;;;;;;10313212;28;20505;-61
2021/03/03 21:40:49;;;;;;;18.58;13.70;;;;;;;;;;10270569;28;20085;-63
2021/03/03 21:45:47;;;;;;;17.17;12.32;;;;;;;;;;10278819;28;20478;-63
2021/03/03 21:50:45;;;;;;;24.58;17.77;;;;;;;;;;10290627;28;20072;-63
2021/03/03 21:55:42;;;;;;;19.67;13.43;;;;;;;;;;10282805;28;20513;-63
2021/03/03 22:00:40;;;;;;;20.10;13.63;;;;;;;;;;10281411;28;20081;-62
2021/03/03 22:05:38;;;;;;;21.80;13.52;;;;;;;;;;10280920;28;20083;-62
2021/03/03 22:10:35;;;;;;;19.70;14.13;;;;;;;;;;10281099;28;20422;-62
2021/03/03 22:15:33;;;;;;;17.05;13.02;;;;;;;;;;10281392;28;20084;-62
2021/03/03 22:20:30;;;;;;;17.20;12.57;;;;;;;;;;10280588;28;20049;-63
2021/03/03 22:25:28;;;;;;;20.80;14.63;;;;;;;;;;10280450;28;20064;-63
2021/03/03 22:30:26;;;;;;;20.65;15.35;;;;;;;;;;10291574;28;20505;-62
2021/03/03 22:35:23;;;;;;;21.23;14.75;;;;;;;;;;10280177;28;20462;-62
2021/03/03 22:40:21;;;;;;;21.05;15.40;;;;;;;;;;10279936;28;20075;-62
2021/03/03 22:45:19;;;;;;;20.48;15.35;;;;;;;;;;10279839;28;20056;-63
2021/03/03 22:50:16;;;;;;;23.67;16.10;;;;;;;;;;10290269;28;20107;-62
2021/03/03 22:55:14;;;;;;;27.70;17.50;;;;;;;;;;10279160;28;20092;-62
2021/03/03 23:00:12;;;;;;;22.55;16.00;;;;;;;;;;10279097;28;20041;-61
2021/03/03 23:05:11;;;;;;;26.50;17.02;;;;;;;;;;10279242;28;20060;-62
2021/03/03 23:10:09;;;;;;;23.50;17.10;;;;;;;;;;10279387;28;20068;-62
2021/03/03 23:15:07;;;;;;;27.58;18.42;;;;;;;;;;10278498;28;20084;-63
2021/03/03 23:20:07;;;;;;;29.70;19.13;;;;;;;;;;10278730;28;20534;-62
2021/03/03 23:25:07;;;;;;;25.40;16.27;;;;;;;;;;10277856;28;20060;-61
2021/03/03 23:30:07;;;;;;;24.73;17.00;;;;;;;;;;10282402;28;20463;-62
2021/03/03 23:35:05;;;;;;;28.88;17.77;;;;;;;;;;10316096;28;20083;-61
2021/03/03 23:40:06;;;;;;;24.02;16.77;;;;;;;;;;10318236;28;20056;-62
2021/03/03 23:45:05;;;;;;;24.73;16.83;;;;;;;;;;10317968;28;20064;-61
2021/03/03 23:50:03;;;;;;;25.75;18.23;;;;;;;;;;10306172;28;20127;-62
2021/03/03 23:55:01;;;;;;;34.10;23.13;;;;;;;;;;10287044;28;20076;-61
2021/03/03 23:59:59;;;;;;;31.50;19.90;;;;;;;;;;10277525;28;20049;-62
